createdAt,value
2023-05-04T00:01:26.502Z,9.43
2023-05-04T00:03:54.718Z,11.40
2023-05-04T00:06:21.388Z,10.80
2023-05-04T00:08:47.881Z,9.27
2023-05-04T00:11:14.367Z,8.27
2023-05-04T00:13:41.276Z,9.48
2023-05-04T00:16:10.476Z,10.07
2023-05-04T00:18:37.569Z,8.50
2023-05-04T00:21:04.133Z,7.00
2023-05-04T00:23:30.797Z,8.77
2023-05-04T00:26:00.780Z,7.82
2023-05-04T00:28:27.335Z,11.00
2023-05-04T00:30:54.728Z,9.77
2023-05-04T00:33:21.802Z,8.30
2023-05-04T00:35:48.360Z,10.55
2023-05-04T00:38:16.693Z,11.77
2023-05-04T00:40:43.282Z,8.80
2023-05-04T00:43:11.434Z,7.43
2023-05-04T00:45:38.673Z,7.85
2023-05-04T00:48:06.290Z,10.82
2023-05-04T00:50:32.935Z,7.20
2023-05-04T00:53:05.464Z,11.07
2023-05-04T00:55:32.358Z,10.50
2023-05-04T00:57:59.064Z,7.30
2023-05-04T01:00:25.809Z,8.43
2023-05-04T01:02:52.447Z,8.98
2023-05-04T01:05:19.345Z,8.77
2023-05-04T01:08:01.195Z,9.87
2023-05-04T01:10:36.389Z,12.02
2023-05-04T01:13:09.738Z,9.90
2023-05-04T01:15:36.685Z,9.18
2023-05-04T01:18:03.439Z,8.82
2023-05-04T01:20:30.465Z,8.67
2023-05-04T01:22:57.107Z,9.02
2023-05-04T01:25:28.633Z,8.38
2023-05-04T01:28:12.554Z,9.00
2023-05-04T01:30:49.896Z,7.85
2023-05-04T01:33:17.145Z,11.23
2023-05-04T01:35:43.845Z,12.43
2023-05-04T01:38:10.460Z,11.90
2023-05-04T01:40:37.012Z,9.77
2023-05-04T01:43:03.542Z,8.70
2023-05-04T01:45:31.168Z,9.00
2023-05-04T01:47:57.804Z,8.68
2023-05-04T01:50:24.492Z,7.80
2023-05-04T01:52:51.049Z,8.75
2023-05-04T01:55:17.583Z,9.77
2023-05-04T01:57:44.130Z,9.80
2023-05-04T02:00:12.045Z,8.50
2023-05-04T02:02:44.764Z,13.32
2023-05-04T02:05:15.889Z,10.20
2023-05-04T02:07:42.416Z,7.63
2023-05-04T02:10:09.267Z,9.30
2023-05-04T02:12:35.886Z,9.15
2023-05-04T02:15:02.965Z,9.27
2023-05-04T02:17:30.777Z,11.95
2023-05-04T02:19:57.358Z,9.13
2023-05-04T02:22:23.924Z,9.43
2023-05-04T02:24:52.684Z,8.27
2023-05-04T02:27:19.177Z,13.60
2023-05-04T02:29:45.685Z,8.90
2023-05-04T02:32:12.166Z,8.57
2023-05-04T02:34:38.746Z,11.20
2023-05-04T02:37:07.357Z,8.93
2023-05-04T02:39:34.802Z,10.93
2023-05-04T02:42:01.716Z,9.65
2023-05-04T02:44:28.212Z,9.32
2023-05-04T02:46:54.691Z,9.00
2023-05-04T02:49:21.655Z,8.73
2023-05-04T02:51:48.209Z,8.98
2023-05-04T02:54:14.747Z,10.98
2023-05-04T02:56:41.389Z,10.48
2023-05-04T02:59:07.914Z,10.93
2023-05-04T03:01:35.000Z,9.32
2023-05-04T03:04:01.828Z,11.27
2023-05-04T03:06:29.167Z,9.63
2023-05-04T03:08:55.993Z,11.65
2023-05-04T03:11:22.491Z,11.37
2023-05-04T03:13:49.026Z,9.02
2023-05-04T03:16:16.695Z,12.23
2023-05-04T03:21:27.653Z,11.68
2023-05-04T03:23:54.533Z,9.30
2023-05-04T03:26:21.493Z,10.18
2023-05-04T03:28:48.882Z,14.57
2023-05-04T03:31:15.471Z,11.10
2023-05-04T03:33:42.436Z,14.90
2023-05-04T03:36:11.981Z,10.13
2023-05-04T03:38:41.662Z,10.38
2023-05-04T03:41:08.194Z,14.43
2023-05-04T03:43:34.732Z,11.27
2023-05-04T03:46:01.444Z,11.52
2023-05-04T03:48:28.021Z,11.63
2023-05-04T03:50:54.629Z,9.50
2023-05-04T03:53:21.316Z,14.82
2023-05-04T03:55:48.120Z,11.48
2023-05-04T03:58:14.768Z,11.82
2023-05-04T04:00:41.537Z,14.03
2023-05-04T04:03:13.244Z,14.27
2023-05-04T04:05:40.048Z,9.95
2023-05-04T04:08:07.054Z,12.93
2023-05-04T04:10:34.813Z,12.70
2023-05-04T04:13:01.463Z,10.60
2023-05-04T04:15:28.162Z,13.27
2023-05-04T04:17:54.682Z,12.15
2023-05-04T04:20:21.289Z,11.07
2023-05-04T04:22:47.824Z,11.88
2023-05-04T04:25:14.353Z,12.10
2023-05-04T04:27:41.313Z,11.65
2023-05-04T04:30:08.326Z,14.52
2023-05-04T04:32:35.149Z,15.48
2023-05-04T04:35:01.758Z,12.85
2023-05-04T04:37:28.397Z,13.00
2023-05-04T04:39:54.911Z,12.25
2023-05-04T04:42:21.415Z,13.70
2023-05-04T04:44:49.467Z,14.20
2023-05-04T04:47:16.662Z,12.80
2023-05-04T04:49:43.449Z,12.70
2023-05-04T04:52:11.375Z,13.50
2023-05-04T04:54:38.769Z,10.63
2023-05-04T04:57:06.041Z,14.68
2023-05-04T04:59:32.759Z,14.90
2023-05-04T05:02:00.471Z,14.70
2023-05-04T05:04:27.140Z,14.68
2023-05-04T05:06:54.191Z,13.75
2023-05-04T05:09:20.846Z,13.25
2023-05-04T05:11:47.350Z,13.80
2023-05-04T05:14:13.900Z,16.60
2023-05-04T05:16:40.710Z,13.35
2023-05-04T05:19:07.598Z,13.23
2023-05-04T05:21:34.145Z,16.42
2023-05-04T05:24:01.767Z,12.90
2023-05-04T05:26:28.359Z,12.83
2023-05-04T05:28:54.834Z,11.38
2023-05-04T05:31:22.227Z,12.90
2023-05-04T05:33:48.915Z,13.27
2023-05-04T05:36:15.459Z,12.07
2023-05-04T05:38:42.020Z,14.60
2023-05-04T05:41:09.697Z,15.55
2023-05-04T05:43:38.498Z,16.52
2023-05-04T05:46:06.395Z,13.20
2023-05-04T05:48:33.541Z,13.07
2023-05-04T05:51:00.294Z,11.90
2023-05-04T05:53:26.855Z,15.18
2023-05-04T05:55:53.380Z,12.73
2023-05-04T05:58:19.910Z,12.82
2023-05-04T06:00:47.542Z,12.68
2023-05-04T06:03:14.461Z,12.43
2023-05-04T06:05:41.587Z,14.15
2023-05-04T06:08:08.208Z,14.13
2023-05-04T06:10:35.051Z,14.63
2023-05-04T06:13:01.735Z,13.90
2023-05-04T06:15:28.491Z,17.17
2023-05-04T06:17:55.129Z,12.40
2023-05-04T06:20:22.703Z,13.68
2023-05-04T06:22:49.182Z,14.10
2023-05-04T06:25:15.746Z,13.82
2023-05-04T06:27:42.281Z,11.37
2023-05-04T06:30:09.458Z,11.63
2023-05-04T06:32:36.288Z,11.70
2023-05-04T06:35:03.226Z,15.18
2023-05-04T06:37:29.710Z,12.55
2023-05-04T06:39:56.504Z,12.00
2023-05-04T06:42:23.045Z,12.65
2023-05-04T06:44:51.328Z,16.27
2023-05-04T06:47:18.136Z,14.90
2023-05-04T06:49:44.628Z,11.27
2023-05-04T06:52:11.506Z,14.83
2023-05-04T06:54:39.959Z,12.23
2023-05-04T06:57:06.611Z,13.15
2023-05-04T06:59:33.165Z,12.95
2023-05-04T07:01:59.739Z,13.00
2023-05-04T07:04:26.408Z,12.47
2023-05-04T07:06:52.973Z,13.27
2023-05-04T07:09:20.300Z,14.80
2023-05-04T07:11:48.706Z,14.48
2023-05-04T07:14:15.986Z,10.27
2023-05-04T07:16:42.592Z,10.87
2023-05-04T07:19:10.443Z,11.10
2023-05-04T07:21:37.526Z,11.80
2023-05-04T07:24:04.959Z,12.32
2023-05-04T07:26:31.578Z,9.98
2023-05-04T07:28:58.148Z,14.10
2023-05-04T07:31:24.937Z,10.32
2023-05-04T07:33:51.645Z,11.80
2023-05-04T07:36:18.266Z,11.25
2023-05-04T07:38:44.980Z,10.27
2023-05-04T07:41:11.625Z,10.70
2023-05-04T07:43:38.380Z,10.90
2023-05-04T07:46:04.951Z,12.63
2023-05-04T07:48:34.241Z,9.75
2023-05-04T07:51:01.279Z,13.15
2023-05-04T07:53:27.801Z,10.27
2023-05-04T07:55:54.727Z,14.20
2023-05-04T07:58:21.384Z,12.30
2023-05-04T08:00:48.116Z,11.38
2023-05-04T08:03:14.848Z,11.55
2023-05-04T08:05:41.441Z,12.23
2023-05-04T08:08:11.043Z,13.25
2023-05-04T08:10:38.112Z,11.85
2023-05-04T08:13:05.607Z,12.63
2023-05-04T08:15:32.704Z,10.57
2023-05-04T08:17:59.342Z,11.10
2023-05-04T08:20:26.095Z,11.63
2023-05-04T08:22:53.272Z,11.07
2023-05-04T08:25:19.932Z,10.00
2023-05-04T08:27:46.734Z,14.15
2023-05-04T08:30:13.888Z,10.90
2023-05-04T08:32:43.128Z,9.70
2023-05-04T08:35:09.736Z,11.88
2023-05-04T08:37:36.655Z,10.20
2023-05-04T08:40:04.814Z,11.98
2023-05-04T08:42:32.885Z,14.70
2023-05-04T08:44:59.574Z,11.23
2023-05-04T08:47:28.993Z,10.30
2023-05-04T08:49:59.154Z,11.00
2023-05-04T08:52:27.297Z,10.85
2023-05-04T08:54:56.033Z,11.77
2023-05-04T08:57:26.138Z,11.48
2023-05-04T08:59:54.112Z,11.48
2023-05-04T09:02:25.165Z,11.38
2023-05-04T09:04:52.955Z,10.55
2023-05-04T09:07:21.260Z,10.40
2023-05-04T09:09:48.451Z,10.13
2023-05-04T09:12:15.132Z,10.18
2023-05-04T09:14:41.858Z,13.30
2023-05-04T09:17:18.135Z,12.32
2023-05-04T09:19:44.928Z,10.87
2023-05-04T09:22:18.713Z,11.48
2023-05-04T09:24:46.582Z,9.07
2023-05-04T09:27:14.450Z,12.25
2023-05-04T09:29:42.479Z,18.88
2023-05-04T09:32:14.330Z,13.53
2023-05-04T09:34:54.590Z,10.63
2023-05-04T09:37:22.204Z,9.73
2023-05-04T09:39:53.732Z,10.75
2023-05-04T09:42:21.416Z,10.25
2023-05-04T09:45:03.361Z,13.80
2023-05-04T09:47:40.567Z,11.93
2023-05-04T09:50:20.815Z,8.50
2023-05-04T09:52:49.340Z,14.05
2023-05-04T09:55:18.693Z,10.60
2023-05-04T09:57:46.614Z,11.47
2023-05-04T10:00:18.179Z,10.02
2023-05-04T10:02:46.512Z,12.90
2023-05-04T10:05:16.692Z,12.25
2023-05-04T10:07:46.674Z,14.30
2023-05-04T10:10:14.238Z,9.30
2023-05-04T10:12:40.894Z,9.70
2023-05-04T10:15:11.842Z,11.07
2023-05-04T10:18:03.223Z,8.68
2023-05-04T10:20:58.130Z,8.55
2023-05-04T10:24:03.521Z,9.23
2023-05-04T10:26:55.302Z,9.98
2023-05-04T10:29:24.466Z,9.15
2023-05-04T10:31:52.713Z,7.95
2023-05-04T10:34:28.027Z,9.95
2023-05-04T10:36:55.241Z,8.30
2023-05-04T10:39:25.536Z,9.43
2023-05-04T10:42:06.487Z,12.30
2023-05-04T10:44:39.859Z,10.90
2023-05-04T10:47:08.196Z,8.60
2023-05-04T10:49:35.999Z,9.57
2023-05-04T10:52:16.001Z,9.10
2023-05-04T10:54:43.771Z,8.50
2023-05-04T10:57:22.060Z,9.35
2023-05-04T10:59:59.188Z,7.75
2023-05-04T11:02:28.450Z,8.17
2023-05-04T11:05:04.725Z,9.40
2023-05-04T11:07:38.870Z,7.82
2023-05-04T11:10:08.083Z,8.35
2023-05-04T11:12:35.285Z,18.35
2023-05-04T11:15:06.113Z,8.80
2023-05-04T11:17:33.315Z,8.52
2023-05-04T11:20:01.080Z,7.05
2023-05-04T11:22:28.147Z,8.48
2023-05-04T11:24:56.225Z,10.07
2023-05-04T11:27:28.435Z,9.47
2023-05-04T11:30:03.140Z,10.48
2023-05-04T11:32:47.959Z,8.82
2023-05-04T11:35:16.541Z,7.95
2023-05-04T11:37:45.093Z,7.15
2023-05-04T11:40:18.168Z,6.83
2023-05-04T11:42:45.373Z,7.18
2023-05-04T11:45:28.251Z,7.65
2023-05-04T11:47:56.787Z,5.97
2023-05-04T11:50:25.995Z,8.20
2023-05-04T11:53:13.646Z,8.57
2023-05-04T11:55:41.907Z,8.60
2023-05-04T11:58:10.793Z,5.78
2023-05-04T12:00:43.267Z,6.72
2023-05-04T12:03:15.355Z,10.80
2023-05-04T12:05:52.791Z,8.13
2023-05-04T12:08:22.399Z,6.43
2023-05-04T12:10:49.063Z,8.25
2023-05-04T12:13:17.202Z,6.35
2023-05-04T12:15:44.019Z,8.10
2023-05-04T12:18:21.869Z,7.67
2023-05-04T12:20:48.394Z,8.65
2023-05-04T12:23:15.016Z,7.70
2023-05-04T12:25:54.721Z,6.13
2023-05-04T12:28:26.792Z,8.07
2023-05-04T12:30:53.617Z,7.83
2023-05-04T12:33:21.041Z,9.70
2023-05-04T12:35:47.985Z,8.45
2023-05-04T12:38:14.757Z,7.82
2023-05-04T12:40:42.867Z,7.03
2023-05-04T12:43:10.281Z,8.77
2023-05-04T12:45:37.251Z,8.20
2023-05-04T12:48:03.968Z,7.88
2023-05-04T12:50:30.532Z,9.80
2023-05-04T12:52:57.297Z,8.15
2023-05-04T12:55:25.423Z,8.57
2023-05-04T12:57:52.282Z,7.22
2023-05-04T13:00:19.276Z,8.73
2023-05-04T13:02:46.184Z,9.25
2023-05-04T13:05:13.150Z,8.07
2023-05-04T13:07:39.817Z,11.03
2023-05-04T13:10:06.761Z,8.73
2023-05-04T13:12:34.038Z,9.38
2023-05-04T13:15:00.918Z,8.75
2023-05-04T13:17:29.526Z,8.07
2023-05-04T13:19:56.185Z,10.10
2023-05-04T13:22:22.914Z,10.40
2023-05-04T13:24:49.496Z,7.18
2023-05-04T13:27:16.187Z,9.02
2023-05-04T13:29:42.758Z,8.18
2023-05-04T13:32:09.585Z,9.57
2023-05-04T13:34:36.112Z,9.52
2023-05-04T13:37:02.990Z,10.45
2023-05-04T13:39:29.595Z,10.02
2023-05-04T13:41:56.881Z,7.95
2023-05-04T13:44:23.662Z,9.93
2023-05-04T13:46:50.236Z,9.73
2023-05-04T13:49:16.777Z,7.13
2023-05-04T13:51:43.437Z,7.82
2023-05-04T13:54:10.026Z,9.77
2023-05-04T13:56:36.586Z,8.20
2023-05-04T13:59:03.455Z,11.05
2023-05-04T14:01:30.417Z,7.47
2023-05-04T14:03:58.000Z,19.17
2023-05-04T14:06:26.063Z,10.95
2023-05-04T14:08:52.735Z,8.90
2023-05-04T14:11:20.429Z,8.88
2023-05-04T14:13:48.634Z,9.63
2023-05-04T14:16:15.175Z,8.98
2023-05-04T14:18:41.793Z,11.18
2023-05-04T14:21:08.421Z,10.03
2023-05-04T14:23:35.356Z,11.07
2023-05-04T14:26:01.988Z,9.70
2023-05-04T14:28:28.594Z,9.38
2023-05-04T14:30:55.311Z,8.10
2023-05-04T14:33:21.861Z,10.10
2023-05-04T14:35:48.622Z,11.00
2023-05-04T14:38:15.894Z,9.32
2023-05-04T14:40:42.601Z,9.25
2023-05-04T14:43:09.183Z,10.40
2023-05-04T14:45:35.900Z,8.00
2023-05-04T14:48:02.561Z,10.25
2023-05-04T14:50:29.088Z,9.65
2023-05-04T14:52:55.723Z,10.95
2023-05-04T14:55:22.444Z,7.72
2023-05-04T14:57:52.271Z,11.87
2023-05-04T15:00:19.734Z,10.95
2023-05-04T15:02:46.355Z,10.50
2023-05-04T15:05:13.272Z,9.73
2023-05-04T15:07:40.335Z,9.55
2023-05-04T15:10:08.511Z,10.77
2023-05-04T15:12:36.148Z,10.63
2023-05-04T15:15:03.185Z,11.05
2023-05-04T15:17:30.997Z,10.23
2023-05-04T15:19:57.689Z,10.13
2023-05-04T15:22:24.466Z,16.33
2023-05-04T15:24:51.510Z,11.60
2023-05-04T15:27:18.001Z,9.00
2023-05-04T15:29:44.649Z,12.68
2023-05-04T15:32:11.691Z,11.18
2023-05-04T15:34:38.229Z,14.43
2023-05-04T15:37:05.258Z,10.90
2023-05-04T15:39:31.951Z,10.80
2023-05-04T15:41:58.817Z,9.43
2023-05-04T15:44:27.717Z,10.60
2023-05-04T15:46:54.312Z,12.17
2023-05-04T15:49:21.109Z,15.65
2023-05-04T15:51:47.728Z,11.38
2023-05-04T15:54:14.464Z,9.95
2023-05-04T15:56:41.022Z,11.68
2023-05-04T15:59:07.633Z,13.17
2023-05-04T16:01:34.525Z,11.65
2023-05-04T16:04:01.540Z,9.07
2023-05-04T16:06:28.299Z,9.02
2023-05-04T16:08:54.839Z,9.77
2023-05-04T16:11:21.635Z,9.63
2023-05-04T16:13:48.198Z,9.88
2023-05-04T16:16:14.887Z,10.02
2023-05-04T16:18:41.522Z,8.85
2023-05-04T16:21:08.996Z,11.05
2023-05-04T16:23:36.362Z,9.80
2023-05-04T16:26:02.981Z,9.18
2023-05-04T16:28:29.515Z,10.30
2023-05-04T16:30:56.291Z,9.15
2023-05-04T16:33:25.011Z,12.60
2023-05-04T16:35:51.572Z,8.43
2023-05-04T16:38:19.544Z,8.52
2023-05-04T16:40:46.209Z,8.43
2023-05-04T16:43:12.982Z,7.82
2023-05-04T16:45:39.901Z,9.52
2023-05-04T16:48:06.667Z,9.47
2023-05-04T16:50:33.371Z,8.13
2023-05-04T16:52:59.949Z,6.93
2023-05-04T16:55:27.058Z,8.10
2023-05-04T16:57:56.756Z,7.43
2023-05-04T17:00:23.831Z,11.03
2023-05-04T17:02:51.794Z,7.50
2023-05-04T17:05:19.302Z,8.73
2023-05-04T17:07:46.669Z,7.00
2023-05-04T17:10:14.695Z,7.15
2023-05-04T17:12:42.323Z,6.70
2023-05-04T17:15:10.527Z,9.05
2023-05-04T17:17:37.204Z,6.70
2023-05-04T17:20:04.113Z,6.53
2023-05-04T17:22:30.913Z,6.57
2023-05-04T17:24:57.530Z,9.00
2023-05-04T17:27:24.156Z,5.78
2023-05-04T17:29:51.097Z,6.57
2023-05-04T17:32:18.137Z,7.75
2023-05-04T17:34:44.799Z,9.95
2023-05-04T17:37:11.295Z,8.27
2023-05-04T17:39:37.819Z,6.50
2023-05-04T17:42:04.543Z,8.70
2023-05-04T17:44:32.782Z,8.30
2023-05-04T17:47:00.170Z,6.43
2023-05-04T17:49:26.925Z,6.70
2023-05-04T17:51:53.517Z,7.63
2023-05-04T17:54:20.044Z,5.28
2023-05-04T17:56:46.690Z,7.18
2023-05-04T17:59:13.540Z,11.90
2023-05-04T18:01:40.229Z,7.73
2023-05-04T18:04:06.799Z,10.75
2023-05-04T18:06:33.420Z,8.75
2023-05-04T18:09:01.056Z,7.18
2023-05-04T18:11:27.763Z,8.60
2023-05-04T18:13:56.466Z,10.87
2023-05-04T18:16:24.542Z,7.03
2023-05-04T18:18:51.388Z,8.45
2023-05-04T18:21:18.213Z,8.20
2023-05-04T18:23:45.150Z,9.00
2023-05-04T18:26:18.190Z,7.83
2023-05-04T18:28:44.793Z,6.75
2023-05-04T18:31:11.308Z,7.25
2023-05-04T18:33:38.640Z,6.82
2023-05-04T18:36:05.759Z,6.88
2023-05-04T18:38:34.380Z,6.07
2023-05-04T18:41:00.963Z,10.18
2023-05-04T18:43:27.477Z,7.10
2023-05-04T18:45:54.167Z,7.18
2023-05-04T18:48:21.213Z,8.27
2023-05-04T18:50:54.011Z,8.37
2023-05-04T18:53:20.746Z,8.07
2023-05-04T18:55:47.346Z,5.68
2023-05-04T18:58:13.861Z,7.80
2023-05-04T19:00:42.354Z,7.68
2023-05-04T19:03:09.117Z,6.07
2023-05-04T19:05:36.099Z,5.88
2023-05-04T19:08:02.623Z,7.80
2023-05-04T19:10:29.225Z,5.22
2023-05-04T19:12:55.874Z,7.65
2023-05-04T19:15:23.778Z,6.10
2023-05-04T19:17:50.506Z,7.05
2023-05-04T19:20:18.726Z,10.05
2023-05-04T19:22:46.154Z,7.47
2023-05-04T19:25:20.519Z,6.97
2023-05-04T19:27:53.814Z,8.80
2023-05-04T19:30:20.426Z,5.93
2023-05-04T19:32:46.971Z,7.45
2023-05-04T19:35:14.609Z,9.25
2023-05-04T19:37:42.069Z,11.10
2023-05-04T19:40:09.319Z,5.03
2023-05-04T19:42:36.002Z,8.57
2023-05-04T19:45:05.375Z,7.28
2023-05-04T19:47:32.335Z,11.63
2023-05-04T19:49:59.102Z,7.93
2023-05-04T19:52:25.862Z,11.23
2023-05-04T19:54:53.832Z,8.95
2023-05-04T19:57:21.186Z,8.38
2023-05-04T19:59:47.856Z,7.00
2023-05-04T20:02:14.954Z,8.40
2023-05-04T20:04:41.589Z,10.63
2023-05-04T20:07:08.523Z,10.70
2023-05-04T20:09:35.796Z,8.15
2023-05-04T20:12:02.902Z,9.38
2023-05-04T20:14:29.425Z,9.60
2023-05-04T20:16:56.085Z,6.63
2023-05-04T20:19:23.014Z,10.70
2023-05-04T20:21:49.633Z,9.93
2023-05-04T20:24:16.487Z,10.43
2023-05-04T20:26:43.063Z,8.68
2023-05-04T20:29:09.640Z,9.20
2023-05-04T20:31:36.406Z,8.38
2023-05-04T20:34:06.110Z,9.27
2023-05-04T20:36:33.270Z,8.05
2023-05-04T20:39:00.262Z,9.20
2023-05-04T20:41:26.899Z,12.50
2023-05-04T20:43:53.681Z,8.23
2023-05-04T20:46:20.368Z,6.53
2023-05-04T20:48:47.017Z,9.63
2023-05-04T20:51:15.236Z,8.65
2023-05-04T20:53:42.020Z,7.63
2023-05-04T20:56:09.016Z,6.38
2023-05-04T20:58:35.671Z,9.63
2023-05-04T21:01:03.887Z,7.95
2023-05-04T21:03:30.882Z,8.90
2023-05-04T21:05:57.877Z,8.03
2023-05-04T21:08:24.798Z,8.13
2023-05-04T21:10:52.075Z,8.05
2023-05-04T21:13:19.445Z,7.93
2023-05-04T21:15:46.047Z,7.43
2023-05-04T21:18:12.685Z,7.60
2023-05-04T21:20:39.379Z,8.60
2023-05-04T21:23:06.284Z,8.68
2023-05-04T21:25:33.159Z,6.70
2023-05-04T21:27:59.773Z,8.20
2023-05-04T21:30:26.797Z,6.80
2023-05-04T21:32:53.387Z,7.05
2023-05-04T21:35:21.923Z,8.25
2023-05-04T21:37:48.812Z,9.32
2023-05-04T21:40:15.472Z,7.75
2023-05-04T21:42:42.054Z,5.97
2023-05-04T21:45:08.790Z,6.28
2023-05-04T21:47:36.327Z,7.47
2023-05-04T21:50:04.256Z,6.97
2023-05-04T21:52:31.040Z,6.88
2023-05-04T21:54:57.733Z,5.80
2023-05-04T21:57:25.836Z,8.73
2023-05-04T21:59:52.425Z,6.30
2023-05-04T22:02:19.162Z,6.70
2023-05-04T22:04:45.980Z,8.52
2023-05-04T22:07:12.722Z,6.20
2023-05-04T22:09:39.338Z,6.70
2023-05-04T22:12:07.626Z,8.57
2023-05-04T22:14:34.684Z,10.48
2023-05-04T22:17:01.547Z,5.95
2023-05-04T22:19:28.286Z,7.27
2023-05-04T22:21:55.974Z,9.07
2023-05-04T22:24:22.628Z,7.35
2023-05-04T22:26:49.401Z,6.72
2023-05-04T22:29:16.045Z,5.55
2023-05-04T22:31:42.720Z,8.57
2023-05-04T22:34:09.310Z,8.93
2023-05-04T22:36:35.977Z,7.18
2023-05-04T22:39:02.657Z,9.98
2023-05-04T22:41:29.177Z,7.30
2023-05-04T22:43:56.104Z,8.47
2023-05-04T22:46:22.825Z,8.55
2023-05-04T22:48:49.785Z,7.72
2023-05-04T22:51:16.544Z,7.75
2023-05-04T22:53:43.194Z,7.60
2023-05-04T22:56:09.774Z,10.17
2023-05-04T22:58:36.471Z,6.70
2023-05-04T23:01:07.837Z,7.00
2023-05-04T23:03:34.872Z,8.70
2023-05-04T23:06:02.605Z,8.15
2023-05-04T23:08:29.375Z,8.27
2023-05-04T23:10:56.013Z,10.07
2023-05-04T23:13:22.632Z,6.75
2023-05-04T23:15:49.367Z,6.57
2023-05-04T23:18:16.070Z,6.68
2023-05-04T23:20:42.717Z,6.77
2023-05-04T23:23:09.473Z,6.65
2023-05-04T23:25:36.302Z,6.28
2023-05-04T23:28:03.793Z,9.02
2023-05-04T23:30:30.411Z,7.13
2023-05-04T23:32:57.796Z,7.03
2023-05-04T23:35:24.564Z,8.27
2023-05-04T23:37:51.423Z,6.15
2023-05-04T23:40:17.989Z,8.73
2023-05-04T23:42:48.795Z,8.68
2023-05-04T23:45:15.504Z,8.23
2023-05-04T23:47:42.156Z,6.45
2023-05-04T23:50:09.220Z,7.53
2023-05-04T23:52:36.020Z,8.48
2023-05-04T23:55:03.670Z,7.18
2023-05-04T23:57:30.504Z,7.57
2023-05-04T23:59:57.191Z,7.35
